createdAt,value
2023-05-04T00:00:10.129Z,11.20
2023-05-04T00:02:37.151Z,11.83
2023-05-04T00:05:07.317Z,12.13
2023-05-04T00:07:34.451Z,11.40
2023-05-04T00:10:01.442Z,11.60
2023-05-04T00:12:28.723Z,11.63
2023-05-04T00:14:55.515Z,11.60
2023-05-04T00:17:22.415Z,12.03
2023-05-04T00:19:49.289Z,13.00
2023-05-04T00:22:16.057Z,12.17
2023-05-04T00:24:44.166Z,12.17
2023-05-04T00:27:11.312Z,11.67
2023-05-04T00:29:37.982Z,13.30
2023-05-04T00:32:05.047Z,11.83
2023-05-04T00:34:34.188Z,12.17
2023-05-04T00:37:01.186Z,11.73
2023-05-04T00:39:27.937Z,12.40
2023-05-04T00:41:54.629Z,12.17
2023-05-04T00:44:23.691Z,12.57
2023-05-04T00:46:52.976Z,12.33
2023-05-04T00:49:21.499Z,12.80
2023-05-04T00:51:49.694Z,12.80
2023-05-04T00:54:19.938Z,13.00
2023-05-04T00:56:47.189Z,12.60
2023-05-04T00:59:14.044Z,13.77
2023-05-04T01:01:41.463Z,12.70
2023-05-04T01:04:08.922Z,12.20
2023-05-04T01:06:44.708Z,13.13
2023-05-04T01:09:17.223Z,12.97
2023-05-04T01:12:24.926Z,13.40
2023-05-04T01:14:53.878Z,12.70
2023-05-04T01:17:20.792Z,13.27
2023-05-04T01:19:48.153Z,13.17
2023-05-04T01:22:14.927Z,13.83
2023-05-04T01:24:41.683Z,13.50
2023-05-04T01:27:24.370Z,13.57
2023-05-04T01:29:54.807Z,13.70
2023-05-04T01:32:22.439Z,13.67
2023-05-04T01:34:49.397Z,13.40
2023-05-04T01:37:16.182Z,11.97
2023-05-04T01:39:42.910Z,12.80
2023-05-04T01:42:09.614Z,12.40
2023-05-04T01:44:36.618Z,13.30
2023-05-04T01:47:03.688Z,13.20
2023-05-04T01:49:30.468Z,14.37
2023-05-04T01:51:57.201Z,13.57
2023-05-04T01:54:23.900Z,13.93
2023-05-04T01:56:50.606Z,13.93
2023-05-04T01:59:17.295Z,12.70
2023-05-04T02:01:44.150Z,12.40
2023-05-04T02:04:10.990Z,14.07
2023-05-04T02:06:37.944Z,13.87
2023-05-04T02:09:04.654Z,11.90
2023-05-04T02:11:31.687Z,10.87
2023-05-04T02:13:58.372Z,12.33
2023-05-04T02:16:25.182Z,11.73
2023-05-04T02:18:52.312Z,11.30
2023-05-04T02:21:18.999Z,11.40
2023-05-04T02:23:45.754Z,11.03
2023-05-04T02:26:12.528Z,9.80
2023-05-04T02:28:39.202Z,9.60
2023-05-04T02:31:06.016Z,9.23
2023-05-04T02:33:32.763Z,10.10
2023-05-04T02:35:59.510Z,11.10
2023-05-04T02:38:26.848Z,10.40
2023-05-04T02:40:53.536Z,10.33
2023-05-04T02:43:23.009Z,11.90
2023-05-04T02:45:50.115Z,11.40
2023-05-04T02:48:16.824Z,11.00
2023-05-04T02:50:46.496Z,11.57
2023-05-04T02:53:13.219Z,10.97
2023-05-04T02:55:40.081Z,12.97
2023-05-04T02:58:07.292Z,13.00
2023-05-04T03:00:34.061Z,10.40
2023-05-04T03:03:01.213Z,12.50
2023-05-04T03:05:27.938Z,12.10
2023-05-04T03:07:54.909Z,12.30
2023-05-04T03:10:22.082Z,13.27
2023-05-04T03:12:48.777Z,12.80
2023-05-04T03:15:15.663Z,13.30
2023-05-04T03:17:43.320Z,11.60
2023-05-04T03:20:10.672Z,12.90
2023-05-04T03:22:37.327Z,12.20
2023-05-04T03:25:04.444Z,12.40
2023-05-04T03:27:31.456Z,13.13
2023-05-04T03:29:58.135Z,13.30
2023-05-04T03:32:25.043Z,15.23
2023-05-04T03:34:51.938Z,15.37
2023-05-04T03:37:18.627Z,15.13
2023-05-04T03:39:45.372Z,15.53
2023-05-04T03:42:12.052Z,15.20
2023-05-04T03:44:38.697Z,14.80
2023-05-04T03:47:05.542Z,15.00
2023-05-04T03:49:32.480Z,14.73
2023-05-04T03:51:59.186Z,14.40
2023-05-04T03:54:26.367Z,15.00
2023-05-04T03:56:53.231Z,15.07
2023-05-04T03:59:19.927Z,14.13
2023-05-04T04:01:46.799Z,14.70
2023-05-04T04:04:13.652Z,14.27
2023-05-04T04:06:42.636Z,15.17
2023-05-04T04:09:10.032Z,14.30
2023-05-04T04:11:36.741Z,14.00
2023-05-04T04:14:03.469Z,15.53
2023-05-04T04:16:30.939Z,14.63
2023-05-04T04:18:58.097Z,15.20
2023-05-04T04:21:24.851Z,13.77
2023-05-04T04:23:51.560Z,15.47
2023-05-04T04:26:18.323Z,16.00
2023-05-04T04:28:50.309Z,15.60
2023-05-04T04:31:20.539Z,16.70
2023-05-04T04:33:49.403Z,16.00
2023-05-04T04:36:19.550Z,16.53
2023-05-04T04:38:46.483Z,17.17
2023-05-04T04:41:13.427Z,16.83
2023-05-04T04:43:40.737Z,16.80
2023-05-04T04:46:08.297Z,18.73
2023-05-04T04:48:35.045Z,16.93
2023-05-04T04:51:02.052Z,17.50
2023-05-04T04:53:28.764Z,17.77
2023-05-04T04:55:55.534Z,17.03
2023-05-04T04:58:22.722Z,18.27
2023-05-04T05:00:52.308Z,16.70
2023-05-04T05:03:19.993Z,16.37
2023-05-04T05:05:46.720Z,17.50
2023-05-04T05:08:13.448Z,14.83
2023-05-04T05:10:41.917Z,14.50
2023-05-04T05:13:09.928Z,13.90
2023-05-04T05:15:36.786Z,13.97
2023-05-04T05:18:03.534Z,13.40
2023-05-04T05:20:30.287Z,11.23
2023-05-04T05:22:56.996Z,14.40
2023-05-04T05:25:23.901Z,13.57
2023-05-04T05:27:50.604Z,13.70
2023-05-04T05:30:17.365Z,12.77
2023-05-04T05:32:44.028Z,13.80
2023-05-04T05:35:11.163Z,13.80
2023-05-04T05:37:37.820Z,13.70
2023-05-04T05:40:08.085Z,13.20
2023-05-04T05:42:34.905Z,12.20
2023-05-04T05:45:03.616Z,13.30
2023-05-04T05:47:31.006Z,11.07
2023-05-04T05:49:57.669Z,11.20
2023-05-04T05:52:24.999Z,11.23
2023-05-04T05:54:51.693Z,10.67
2023-05-04T05:57:18.450Z,11.00
2023-05-04T05:59:45.832Z,11.13
2023-05-04T06:02:14.728Z,10.40
2023-05-04T06:04:42.625Z,9.73
2023-05-04T06:07:09.434Z,9.70
2023-05-04T06:09:36.547Z,10.73
2023-05-04T06:12:04.881Z,10.17
2023-05-04T06:14:31.706Z,10.40
2023-05-04T06:16:58.887Z,8.73
2023-05-04T06:19:27.515Z,8.50
2023-05-04T06:21:55.238Z,8.77
2023-05-04T06:24:22.781Z,7.83
2023-05-04T06:26:49.539Z,8.57
2023-05-04T06:29:16.207Z,7.70
2023-05-04T06:31:43.074Z,7.40
2023-05-04T06:34:09.993Z,8.67
2023-05-04T06:36:36.953Z,6.93
2023-05-04T06:39:03.934Z,7.13
2023-05-04T06:41:30.646Z,6.93
2023-05-04T06:43:58.845Z,6.70
2023-05-04T06:46:26.835Z,6.07
2023-05-04T06:48:54.571Z,6.63
2023-05-04T06:51:22.136Z,6.33
2023-05-04T06:53:49.140Z,6.70
2023-05-04T06:56:16.675Z,5.70
2023-05-04T06:58:43.406Z,5.70
2023-05-04T07:01:10.485Z,5.80
2023-05-04T07:03:37.883Z,6.13
2023-05-04T07:06:05.119Z,6.70
2023-05-04T07:08:31.777Z,6.00
2023-05-04T07:10:58.491Z,5.77
2023-05-04T07:13:25.155Z,5.90
2023-05-04T07:15:52.017Z,6.10
2023-05-04T07:18:18.788Z,5.40
2023-05-04T07:20:45.529Z,5.20
2023-05-04T07:23:12.340Z,4.80
2023-05-04T07:25:39.261Z,5.40
2023-05-04T07:28:05.951Z,5.40
2023-05-04T07:30:32.638Z,5.03
2023-05-04T07:32:59.319Z,4.93
2023-05-04T07:35:27.065Z,4.97
2023-05-04T07:37:54.218Z,4.33
2023-05-04T07:40:21.494Z,5.13
2023-05-04T07:42:48.256Z,4.20
2023-05-04T07:45:16.892Z,5.10
2023-05-04T07:47:43.610Z,5.60
2023-05-04T07:50:10.859Z,5.60
2023-05-04T07:52:37.550Z,5.90
2023-05-04T07:55:04.571Z,5.80
2023-05-04T07:57:32.372Z,7.13
2023-05-04T07:59:59.144Z,6.83
2023-05-04T08:02:25.898Z,6.23
2023-05-04T08:04:52.670Z,5.53
2023-05-04T08:07:20.579Z,6.10
2023-05-04T08:09:47.401Z,7.40
2023-05-04T08:12:14.065Z,6.50
2023-05-04T08:14:40.821Z,6.40
2023-05-04T08:17:07.692Z,6.77
2023-05-04T08:19:34.396Z,6.23
2023-05-04T08:22:01.176Z,5.30
2023-05-04T08:24:27.897Z,5.33
2023-05-04T08:27:07.177Z,4.87
2023-05-04T08:29:37.067Z,5.30
2023-05-04T08:32:04.077Z,4.87
2023-05-04T08:34:30.984Z,5.27
2023-05-04T08:36:58.265Z,5.63
2023-05-04T08:39:25.097Z,4.60
2023-05-04T08:41:51.851Z,5.10
2023-05-04T08:44:19.151Z,5.33
2023-05-04T08:46:53.435Z,4.50
2023-05-04T08:49:21.016Z,4.80
2023-05-04T08:51:50.335Z,4.20
2023-05-04T08:54:18.060Z,4.80
2023-05-04T08:56:47.210Z,4.73
2023-05-04T08:59:21.933Z,4.93
2023-05-04T09:01:56.449Z,4.50
2023-05-04T09:04:23.455Z,5.03
2023-05-04T09:06:50.953Z,5.60
2023-05-04T09:09:17.698Z,5.30
2023-05-04T09:11:44.517Z,5.10
2023-05-04T09:14:11.367Z,5.37
2023-05-04T09:16:38.618Z,5.20
2023-05-04T09:19:20.293Z,4.90
2023-05-04T09:21:49.269Z,4.40
2023-05-04T09:24:29.848Z,5.10
2023-05-04T09:27:09.871Z,4.60
2023-05-04T09:29:39.608Z,5.00
2023-05-04T09:32:09.967Z,5.20
2023-05-04T09:34:37.473Z,4.50
2023-05-04T09:37:05.162Z,5.50
2023-05-04T09:39:31.892Z,4.63
2023-05-04T09:41:58.733Z,5.10
2023-05-04T09:44:28.195Z,5.43
2023-05-04T09:46:58.114Z,5.80
2023-05-04T09:49:35.333Z,4.53
2023-05-04T09:52:04.007Z,5.70
2023-05-04T09:54:35.847Z,4.90
2023-05-04T09:57:11.982Z,5.20
2023-05-04T09:59:39.874Z,5.57
2023-05-04T10:02:21.889Z,4.47
2023-05-04T10:04:57.297Z,4.57
2023-05-04T10:07:24.876Z,5.83
2023-05-04T10:09:52.331Z,5.10
2023-05-04T10:12:19.162Z,5.40
2023-05-04T10:14:47.293Z,5.33
2023-05-04T10:17:51.952Z,4.67
2023-05-04T10:20:39.873Z,5.13
2023-05-04T10:23:33.310Z,5.30
2023-05-04T10:26:31.053Z,5.47
2023-05-04T10:29:07.670Z,6.00
2023-05-04T10:31:42.103Z,5.37
2023-05-04T10:34:09.896Z,6.43
2023-05-04T10:36:38.055Z,5.93
2023-05-04T10:39:21.301Z,5.67
2023-05-04T10:42:01.931Z,5.37
2023-05-04T10:44:30.160Z,6.40
2023-05-04T10:47:07.791Z,6.07
2023-05-04T10:49:36.196Z,6.27
2023-05-04T10:52:06.721Z,4.90
2023-05-04T10:54:34.051Z,6.10
2023-05-04T10:57:06.353Z,4.53
2023-05-04T10:59:36.046Z,4.90
2023-05-04T11:02:05.180Z,5.30
2023-05-04T11:04:32.305Z,5.20
2023-05-04T11:07:06.349Z,5.37
2023-05-04T11:09:41.691Z,5.30
2023-05-04T11:12:12.077Z,5.73
2023-05-04T11:14:43.291Z,5.27
2023-05-04T11:17:27.402Z,4.60
2023-05-04T11:19:54.635Z,4.67
2023-05-04T11:22:21.570Z,4.13
2023-05-04T11:24:48.787Z,4.17
2023-05-04T11:27:27.627Z,5.13
2023-05-04T11:30:02.085Z,5.23
2023-05-04T11:32:36.125Z,4.70
2023-05-04T11:35:04.516Z,4.40
2023-05-04T11:37:37.355Z,4.10
2023-05-04T11:40:16.414Z,3.90
2023-05-04T11:42:44.179Z,4.73
2023-05-04T11:45:12.725Z,5.03
2023-05-04T11:47:39.978Z,5.20
2023-05-04T11:50:07.493Z,4.73
2023-05-04T11:52:36.505Z,4.60
2023-05-04T11:55:04.307Z,3.80
2023-05-04T11:57:31.782Z,4.77
2023-05-04T11:59:59.568Z,5.60
2023-05-04T12:02:27.011Z,4.40
2023-05-04T12:04:54.002Z,5.40
2023-05-04T12:07:21.032Z,5.20
2023-05-04T12:09:49.039Z,5.60
2023-05-04T12:12:18.964Z,4.90
2023-05-04T12:14:50.111Z,4.47
2023-05-04T12:17:16.912Z,5.43
2023-05-04T12:19:55.166Z,5.20
2023-05-04T12:22:29.192Z,4.90
2023-05-04T12:25:00.236Z,4.40
2023-05-04T12:27:27.440Z,4.37
2023-05-04T12:29:54.263Z,4.47
2023-05-04T12:32:21.662Z,3.60
2023-05-04T12:34:48.492Z,4.17
2023-05-04T12:37:15.193Z,4.87
2023-05-04T12:39:41.974Z,4.90
2023-05-04T12:42:08.646Z,4.57
2023-05-04T12:44:35.706Z,3.93
2023-05-04T12:47:02.449Z,5.03
2023-05-04T12:49:29.340Z,3.90
2023-05-04T12:51:56.034Z,3.70
2023-05-04T12:54:22.994Z,4.10
2023-05-04T12:56:52.222Z,3.97
2023-05-04T12:59:19.246Z,4.30
2023-05-04T13:01:46.129Z,4.50
2023-05-04T13:04:12.886Z,4.43
2023-05-04T13:06:39.763Z,4.40
2023-05-04T13:09:06.877Z,5.37
2023-05-04T13:11:33.597Z,4.97
2023-05-04T13:14:00.598Z,4.50
2023-05-04T13:16:28.192Z,3.87
2023-05-04T13:18:55.572Z,3.70
2023-05-04T13:21:22.422Z,4.00
2023-05-04T13:23:49.280Z,4.80
2023-05-04T13:26:16.371Z,4.63
2023-05-04T13:28:43.164Z,5.10
2023-05-04T13:31:10.264Z,4.90
2023-05-04T13:33:38.756Z,4.77
2023-05-04T13:36:06.650Z,4.07
2023-05-04T13:38:33.447Z,4.63
2023-05-04T13:41:00.309Z,4.60
2023-05-04T13:43:27.443Z,4.23
2023-05-04T13:45:54.180Z,4.60
2023-05-04T13:48:21.134Z,3.60
2023-05-04T13:50:47.829Z,3.83
2023-05-04T13:53:14.874Z,3.33
2023-05-04T13:55:41.779Z,3.43
2023-05-04T13:58:08.483Z,2.83
2023-05-04T14:00:35.234Z,4.50
2023-05-04T14:03:02.247Z,4.43
2023-05-04T14:05:29.807Z,3.97
2023-05-04T14:07:56.698Z,3.43
2023-05-04T14:10:23.453Z,3.73
2023-05-04T14:12:50.172Z,3.60
2023-05-04T14:15:17.049Z,3.77
2023-05-04T14:17:43.853Z,3.20
2023-05-04T14:20:10.922Z,3.57
2023-05-04T14:22:41.205Z,2.83
2023-05-04T14:25:08.831Z,3.43
2023-05-04T14:27:35.982Z,2.70
2023-05-04T14:30:03.851Z,2.80
2023-05-04T14:32:30.951Z,3.47
2023-05-04T14:35:11.182Z,3.70
2023-05-04T14:37:39.316Z,3.60
2023-05-04T14:40:08.001Z,3.77
2023-05-04T14:42:35.656Z,3.60
2023-05-04T14:45:02.549Z,3.40
2023-05-04T14:47:29.691Z,3.83
2023-05-04T14:49:57.435Z,3.30
2023-05-04T14:52:24.166Z,3.40
2023-05-04T14:54:51.028Z,3.13
2023-05-04T14:57:18.060Z,3.50
2023-05-04T14:59:44.989Z,3.37
2023-05-04T15:02:12.556Z,3.47
2023-05-04T15:04:39.324Z,3.97
2023-05-04T15:07:06.024Z,3.70
2023-05-04T15:09:32.840Z,2.87
2023-05-04T15:11:59.626Z,3.20
2023-05-04T15:14:26.787Z,3.67
2023-05-04T15:16:53.823Z,3.63
2023-05-04T15:19:21.634Z,3.83
2023-05-04T15:21:49.326Z,3.40
2023-05-04T15:24:16.062Z,2.70
2023-05-04T15:26:42.802Z,3.47
2023-05-04T15:29:09.471Z,3.27
2023-05-04T15:31:36.270Z,3.53
2023-05-04T15:34:02.974Z,3.20
2023-05-04T15:36:31.663Z,4.10
2023-05-04T15:38:58.573Z,3.30
2023-05-04T15:41:25.298Z,3.70
2023-05-04T15:43:52.008Z,4.17
2023-05-04T15:46:18.962Z,3.83
2023-05-04T15:48:45.815Z,3.73
2023-05-04T15:51:12.699Z,3.63
2023-05-04T15:53:40.092Z,3.73
2023-05-04T15:56:06.883Z,3.33
2023-05-04T15:58:33.792Z,3.70
2023-05-04T16:01:03.965Z,4.50
2023-05-04T16:03:35.598Z,3.60
2023-05-04T16:06:02.587Z,3.30
2023-05-04T16:08:29.642Z,3.83
2023-05-04T16:10:57.765Z,3.20
2023-05-04T16:13:25.041Z,3.33
2023-05-04T16:15:52.585Z,3.23
2023-05-04T16:18:19.835Z,3.50
2023-05-04T16:20:48.357Z,3.80
2023-05-04T16:23:17.025Z,3.70
2023-05-04T16:25:44.490Z,3.50
2023-05-04T16:28:11.339Z,3.67
2023-05-04T16:30:38.244Z,4.00
2023-05-04T16:33:05.152Z,3.10
2023-05-04T16:35:32.119Z,3.43
2023-05-04T16:37:59.189Z,3.37
2023-05-04T16:40:26.647Z,3.40
2023-05-04T16:42:53.328Z,13.83
2023-05-04T16:45:20.905Z,12.33
2023-05-04T16:47:47.576Z,6.10
2023-05-04T16:50:14.696Z,4.20
2023-05-04T16:52:41.949Z,3.63
2023-05-04T16:55:11.808Z,4.33
2023-05-04T16:57:39.181Z,3.87
2023-05-04T17:00:07.277Z,3.50
2023-05-04T17:02:34.780Z,4.00
2023-05-04T17:05:01.595Z,3.40
2023-05-04T17:07:28.663Z,3.47
2023-05-04T17:09:55.353Z,5.87
2023-05-04T17:12:23.307Z,4.67
2023-05-04T17:14:50.207Z,4.90
2023-05-04T17:17:17.012Z,3.50
2023-05-04T17:19:43.639Z,4.30
2023-05-04T17:22:11.315Z,3.47
2023-05-04T17:24:38.182Z,4.50
2023-05-04T17:27:04.910Z,31.50
2023-05-04T17:29:31.646Z,7.30
2023-05-04T17:31:58.424Z,5.87
2023-05-04T17:34:25.546Z,4.77
2023-05-04T17:36:52.176Z,3.80
2023-05-04T17:39:18.860Z,3.77
2023-05-04T17:41:48.641Z,4.00
2023-05-04T17:44:16.403Z,3.77
2023-05-04T17:46:46.922Z,3.73
2023-05-04T17:49:13.678Z,3.00
2023-05-04T17:51:41.230Z,3.77
2023-05-04T17:54:08.284Z,4.43
2023-05-04T17:56:34.962Z,3.70
2023-05-04T17:59:09.671Z,3.50
2023-05-04T18:01:36.441Z,3.20
2023-05-04T18:04:04.145Z,3.33
2023-05-04T18:06:32.607Z,3.20
2023-05-04T18:09:00.829Z,3.50
2023-05-04T18:11:27.654Z,3.27
2023-05-04T18:13:56.330Z,3.30
2023-05-04T18:16:24.278Z,3.00
2023-05-04T18:18:51.661Z,3.00
2023-05-04T18:21:18.474Z,5.60
2023-05-04T18:23:45.236Z,8.80
2023-05-04T18:26:19.213Z,7.10
2023-05-04T18:28:45.988Z,6.80
2023-05-04T18:31:12.737Z,4.77
2023-05-04T18:33:39.466Z,4.60
2023-05-04T18:36:06.418Z,4.90
2023-05-04T18:38:34.601Z,3.73
2023-05-04T18:41:01.277Z,4.00
2023-05-04T18:43:28.005Z,3.40
2023-05-04T18:45:54.810Z,3.77
2023-05-04T18:48:21.953Z,6.33
2023-05-04T18:50:56.859Z,5.40
2023-05-04T18:53:24.439Z,6.00
2023-05-04T18:56:20.636Z,4.97
2023-05-04T18:58:47.288Z,5.10
2023-05-04T19:01:14.115Z,4.17
2023-05-04T19:03:40.974Z,3.53
2023-05-04T19:06:07.721Z,3.97
2023-05-04T19:08:34.440Z,4.10
2023-05-04T19:11:03.285Z,4.70
2023-05-04T19:13:30.450Z,3.87
2023-05-04T19:15:57.338Z,4.67
2023-05-04T19:18:24.574Z,4.70
2023-05-04T19:20:51.303Z,4.50
2023-05-04T19:23:18.094Z,5.73
2023-05-04T19:25:45.366Z,4.33
2023-05-04T19:28:12.139Z,4.63
2023-05-04T19:30:39.624Z,5.40
2023-05-04T19:33:09.314Z,5.10
2023-05-04T19:35:36.389Z,5.80
2023-05-04T19:38:06.107Z,4.37
2023-05-04T19:40:33.810Z,5.17
2023-05-04T19:43:01.001Z,5.43
2023-05-04T19:45:27.750Z,4.60
2023-05-04T19:47:54.659Z,3.80
2023-05-04T19:50:21.540Z,3.47
2023-05-04T19:52:48.272Z,3.30
2023-05-04T19:55:16.463Z,3.10
2023-05-04T19:57:43.696Z,2.57
2023-05-04T20:00:10.883Z,2.93
2023-05-04T20:02:40.480Z,3.40
2023-05-04T20:05:07.481Z,2.50
2023-05-04T20:07:34.363Z,2.70
2023-05-04T20:10:01.565Z,2.73
2023-05-04T20:12:28.287Z,2.63
2023-05-04T20:14:55.610Z,3.10
2023-05-04T20:17:22.655Z,2.70
2023-05-04T20:19:49.868Z,2.87
2023-05-04T20:22:16.731Z,2.37
2023-05-04T20:24:43.551Z,2.67
2023-05-04T20:27:10.241Z,2.60
2023-05-04T20:29:37.532Z,2.43
2023-05-04T20:32:05.480Z,2.87
2023-05-04T20:34:32.829Z,2.90
2023-05-04T20:36:59.545Z,2.37
2023-05-04T20:39:26.305Z,2.77
2023-05-04T20:41:53.024Z,2.87
2023-05-04T20:44:19.845Z,2.60
2023-05-04T20:46:46.746Z,2.33
2023-05-04T20:49:13.749Z,2.80
2023-05-04T20:51:40.618Z,2.60
2023-05-04T20:54:07.429Z,2.30
2023-05-04T20:56:34.119Z,3.00
2023-05-04T20:59:01.004Z,2.63
2023-05-04T21:01:29.532Z,2.40
2023-05-04T21:03:56.593Z,3.17
2023-05-04T21:06:24.429Z,3.37
2023-05-04T21:08:51.211Z,2.93
2023-05-04T21:11:18.065Z,3.27
2023-05-04T21:13:44.951Z,2.77
2023-05-04T21:16:12.042Z,3.10
2023-05-04T21:18:38.804Z,3.33
2023-05-04T21:21:05.852Z,3.17
2023-05-04T21:23:32.603Z,3.10
2023-05-04T21:26:06.327Z,3.67
2023-05-04T21:28:33.248Z,2.30
2023-05-04T21:31:00.448Z,3.37
2023-05-04T21:33:27.429Z,3.33
2023-05-04T21:35:54.659Z,2.47
2023-05-04T21:38:22.248Z,3.33
2023-05-04T21:40:49.371Z,2.77
2023-05-04T21:43:16.296Z,3.30
2023-05-04T21:45:43.157Z,3.30
2023-05-04T21:48:09.931Z,3.20
2023-05-04T21:50:37.177Z,4.20
2023-05-04T21:53:04.052Z,12.00
2023-05-04T21:55:31.065Z,17.40
2023-05-04T21:57:57.840Z,7.30
2023-05-04T22:00:24.786Z,4.67
2023-05-04T22:02:54.576Z,3.80
2023-05-04T22:05:22.727Z,3.87
2023-05-04T22:07:50.219Z,3.70
2023-05-04T22:10:17.409Z,3.00
2023-05-04T22:12:44.489Z,3.53
2023-05-04T22:15:11.593Z,3.53
2023-05-04T22:17:38.445Z,3.10
2023-05-04T22:20:06.394Z,3.73
2023-05-04T22:22:33.234Z,3.13
2023-05-04T22:25:00.200Z,3.03
2023-05-04T22:27:27.126Z,3.63
2023-05-04T22:29:54.130Z,3.00
2023-05-04T22:32:20.837Z,3.63
2023-05-04T22:34:47.649Z,3.70
2023-05-04T22:37:14.364Z,4.27
2023-05-04T22:39:41.129Z,3.63
2023-05-04T22:42:07.823Z,3.40
2023-05-04T22:44:34.876Z,4.50
2023-05-04T22:47:01.901Z,4.53
2023-05-04T22:49:28.587Z,3.60
2023-05-04T22:51:55.518Z,4.40
2023-05-04T22:54:22.158Z,3.80
2023-05-04T22:56:48.887Z,4.20
2023-05-04T22:59:15.564Z,3.90
2023-05-04T23:01:43.600Z,3.73
2023-05-04T23:04:11.531Z,4.70
2023-05-04T23:06:38.868Z,3.93
2023-05-04T23:09:05.805Z,5.77
2023-05-04T23:11:32.501Z,5.03
2023-05-04T23:13:59.677Z,4.57
2023-05-04T23:16:26.516Z,4.47
2023-05-04T23:18:53.339Z,3.67
2023-05-04T23:21:20.299Z,3.43
2023-05-04T23:23:47.019Z,4.80
2023-05-04T23:26:13.713Z,4.60
2023-05-04T23:28:40.634Z,4.50
2023-05-04T23:31:07.408Z,4.70
2023-05-04T23:33:34.331Z,4.60
2023-05-04T23:36:01.303Z,5.07
2023-05-04T23:38:28.324Z,4.70
2023-05-04T23:40:55.087Z,4.30
2023-05-04T23:43:23.662Z,4.57
2023-05-04T23:45:58.513Z,4.30
2023-05-04T23:48:25.281Z,4.30
2023-05-04T23:51:03.679Z,4.10
2023-05-04T23:53:34.032Z,4.47
2023-05-04T23:56:04.092Z,4.47
2023-05-04T23:58:32.321Z,3.60
